Time;durP1;ratioP1;P1;durP2;ratioP2;P2;SDS_P1;SDS_P2;PMS_P1;PMS_P2;Temp;Humidity;BMP_temperature;BMP_pressure;BME280_temperature;BME280_humidity;BME280_pressure;Samples;Min_cycle;Max_cycle;Signal;HPM_P1;HPM_P2
2024/04/11 18:11:56;;;;;;;41.55;25.38;;;;;;;;;;5441567;26;20445;-83
2024/04/11 18:14:44;;;;;;;42.53;25.80;;;;;;;;;;5407115;26;20035;-83
2024/04/11 18:17:10;;;;;;;51.67;33.20;;;;;;;;;;5407185;26;20000;-83
2024/04/11 18:19:42;;;;;;;51.28;28.15;;;;;;;;;;5407189;26;19988;-82
2024/04/11 18:22:11;;;;;;;35.70;22.85;;;;;;;;;;5406997;26;19996;-82
2024/04/11 18:24:44;;;;;;;20.35;8.68;;;;;;;;;;5407107;26;19992;-82
2024/04/11 18:27:13;;;;;;;12.77;6.70;;;;;;;;;;5407135;26;19988;-82
2024/04/11 18:29:42;;;;;;;14.73;6.95;;;;;;;;;;5406492;26;20061;-83
2024/04/11 18:32:12;;;;;;;12.20;5.63;;;;;;;;;;5406232;26;19996;-82
2024/04/11 18:34:38;;;;;;;19.05;5.68;;;;;;;;;;5407152;26;20002;-82
2024/04/11 18:37:12;;;;;;;20.90;6.35;;;;;;;;;;5406384;26;20342;-82
2024/04/11 18:42:40;;;;;;;10.75;5.68;;;;;;;;;;5406542;26;20010;-83
2024/04/11 18:45:33;;;;;;;16.30;5.97;;;;;;;;;;5407052;26;19995;-83
2024/04/11 18:48:00;;;;;;;12.48;5.88;;;;;;;;;;5406996;26;19987;-83
2024/04/11 18:50:27;;;;;;;18.77;6.43;;;;;;;;;;5407133;26;20014;-83
2024/04/11 18:52:54;;;;;;;19.67;6.43;;;;;;;;;;5405899;26;20004;-82
2024/04/11 18:55:23;;;;;;;16.92;6.75;;;;;;;;;;5405977;26;20014;-83
2024/04/11 18:57:55;;;;;;;18.20;8.23;;;;;;;;;;5406347;26;19992;-83
2024/04/11 19:00:21;;;;;;;16.55;6.20;;;;;;;;;;5406036;26;20019;-82
2024/04/11 19:02:47;;;;;;;18.75;6.57;;;;;;;;;;5405584;26;19996;-83
2024/04/11 19:05:13;;;;;;;23.15;8.88;;;;;;;;;;5406678;26;19996;-83
2024/04/11 19:07:39;;;;;;;25.45;11.05;;;;;;;;;;5406188;26;20361;-83
2024/04/11 19:10:14;;;;;;;79.55;27.75;;;;;;;;;;5404876;26;19992;-82
2024/04/11 19:12:41;;;;;;;100.13;35.90;;;;;;;;;;5406332;26;19996;-83
2024/04/11 19:15:08;;;;;;;160.52;42.28;;;;;;;;;;5406401;26;20299;-83
2024/04/11 19:17:38;;;;;;;180.88;45.15;;;;;;;;;;5406085;26;19996;-83
2024/04/11 19:20:19;;;;;;;142.45;36.45;;;;;;;;;;5404976;26;19999;-83
2024/04/11 19:22:45;;;;;;;95.50;25.38;;;;;;;;;;5391027;26;19992;-83
2024/04/11 19:25:12;;;;;;;59.38;17.42;;;;;;;;;;5379880;26;19992;-80
2024/04/11 19:27:38;;;;;;;61.05;21.42;;;;;;;;;;5390657;26;20000;-79
2024/04/11 19:30:09;;;;;;;39.35;15.95;;;;;;;;;;5390587;26;19988;-81
2024/04/11 19:32:44;;;;;;;39.85;14.38;;;;;;;;;;5391320;26;20007;-81
2024/04/11 19:35:10;;;;;;;25.52;11.38;;;;;;;;;;5390482;26;20317;-81
2024/04/11 19:37:40;;;;;;;25.35;12.60;;;;;;;;;;5390404;26;20065;-81
2024/04/11 19:40:13;;;;;;;16.73;10.57;;;;;;;;;;5390807;26;20029;-80
2024/04/11 19:42:39;;;;;;;16.05;8.02;;;;;;;;;;5390742;26;20011;-82
2024/04/11 19:45:12;;;;;;;15.55;6.65;;;;;;;;;;5390831;26;19992;-81
2024/04/11 19:47:44;;;;;;;21.85;7.40;;;;;;;;;;5389323;26;19992;-81
2024/04/11 19:50:18;;;;;;;12.43;6.35;;;;;;;;;;5390644;26;19998;-81
2024/04/11 19:52:49;;;;;;;18.77;7.68;;;;;;;;;;5389466;26;20008;-81
2024/04/11 19:55:27;;;;;;;15.48;7.57;;;;;;;;;;5390300;26;19992;-80
2024/04/11 19:58:00;;;;;;;16.25;7.50;;;;;;;;;;5388378;26;20019;-80
2024/04/11 20:03:19;;;;;;;14.80;8.23;;;;;;;;;;5390393;26;20024;-81
2024/04/11 20:05:54;;;;;;;22.02;8.70;;;;;;;;;;5390533;26;20277;-81
2024/04/11 20:08:23;;;;;;;20.45;8.57;;;;;;;;;;5390279;26;20004;-80
2024/04/11 20:10:49;;;;;;;18.17;7.53;;;;;;;;;;5389833;26;19999;-80
2024/04/11 20:13:50;;;;;;;14.98;8.18;;;;;;;;;;5390319;26;20000;-80
2024/04/11 20:16:03;;;;;;;14.32;8.63;;;;;;;;;;5390061;26;20338;-80
2024/04/11 20:18:43;;;;;;;15.15;7.85;;;;;;;;;;5389194;26;20365;-81
2024/04/11 20:21:10;;;;;;;14.73;8.07;;;;;;;;;;5388755;26;20049;-80
2024/04/11 20:23:38;;;;;;;18.40;7.85;;;;;;;;;;5389451;26;20011;-79
2024/04/11 20:26:05;;;;;;;15.38;7.88;;;;;;;;;;5389296;26;20004;-81
2024/04/11 20:28:31;;;;;;;21.38;8.63;;;;;;;;;;5388493;26;19992;-81
2024/04/11 20:31:00;;;;;;;20.48;7.82;;;;;;;;;;5389903;26;20007;-81
2024/04/11 20:33:31;;;;;;;16.20;7.72;;;;;;;;;;5390228;26;20018;-81
2024/04/11 20:36:09;;;;;;;18.38;7.15;;;;;;;;;;5389254;26;20349;-81
2024/04/11 20:38:36;;;;;;;18.15;7.38;;;;;;;;;;5389460;26;20007;-81
2024/04/11 20:41:10;;;;;;;17.17;6.72;;;;;;;;;;5388205;26;20011;-81
2024/04/11 20:43:37;;;;;;;29.58;7.20;;;;;;;;;;5389952;26;19996;-81
2024/04/11 20:46:13;;;;;;;17.15;7.00;;;;;;;;;;5390074;26;20350;-81
2024/04/11 20:48:53;;;;;;;19.85;6.45;;;;;;;;;;5390388;26;19988;-81
2024/04/11 21:35:40;;;;;;;22.30;8.25;;;;;;;;;;5458566;26;19998;-80
2024/04/11 21:38:08;;;;;;;21.30;7.85;;;;;;;;;;5458110;26;20101;-80
2024/04/11 21:40:34;;;;;;;21.63;8.85;;;;;;;;;;5457897;26;20009;-80
2024/04/11 21:43:05;;;;;;;17.23;8.27;;;;;;;;;;5457974;26;20302;-80
2024/04/11 21:45:33;;;;;;;22.70;8.50;;;;;;;;;;5457222;26;20049;-81
2024/04/11 21:48:02;;;;;;;22.15;9.25;;;;;;;;;;5457018;26;20306;-80
2024/04/11 21:50:36;;;;;;;22.40;9.30;;;;;;;;;;5457904;26;19987;-80
2024/04/11 21:53:02;;;;;;;24.23;9.70;;;;;;;;;;5457761;26;19998;-81
2024/04/11 21:55:28;;;;;;;18.40;9.52;;;;;;;;;;5458114;26;19987;-81
2024/04/11 21:57:58;;;;;;;20.30;8.40;;;;;;;;;;5457898;26;20002;-81
2024/04/11 22:03:09;;;;;;;28.23;9.38;;;;;;;;;;5457862;26;20244;-81
2024/04/11 22:05:41;;;;;;;19.48;9.30;;;;;;;;;;5389176;26;19992;-81
2024/04/11 22:08:07;;;;;;;;;;;;;;;;;;5388962;26;20003;-81
2024/04/11 22:10:43;;;;;;;23.52;9.10;;;;;;;;;;5388295;26;20626;-80
2024/04/11 22:13:17;;;;;;;18.77;9.15;;;;;;;;;;5388038;26;20011;-80
2024/04/11 22:15:43;;;;;;;16.42;9.98;;;;;;;;;;5388658;26;20010;-81
2024/04/11 22:18:29;;;;;;;20.55;9.85;;;;;;;;;;5387192;26;20004;-81
2024/04/11 22:21:22;;;;;;;16.27;10.27;;;;;;;;;;5388621;26;20042;-81
2024/04/11 22:23:49;;;;;;;17.08;9.55;;;;;;;;;;5387864;26;20378;-80
2024/04/11 22:26:19;;;;;;;18.10;9.82;;;;;;;;;;5387050;26;19997;-81
2024/04/11 22:28:46;;;;;;;17.83;9.73;;;;;;;;;;5388675;26;20032;-81
2024/04/11 22:31:14;;;;;;;20.65;10.18;;;;;;;;;;5388232;26;19996;-81
2024/04/11 22:33:42;;;;;;;18.58;11.27;;;;;;;;;;5387793;26;20001;-81
2024/04/11 22:38:50;;;;;;;;;;;;;;;;;;5389167;26;19989;-81
2024/04/11 22:41:16;;;;;;;23.70;10.93;;;;;;;;;;5388157;26;19928;-81
2024/04/11 22:43:45;;;;;;;20.02;10.50;;;;;;;;;;5387481;26;20057;-81
2024/04/11 22:46:16;;;;;;;17.27;10.70;;;;;;;;;;5387613;26;19999;-81
2024/04/11 22:48:45;;;;;;;18.23;10.20;;;;;;;;;;5386644;26;19993;-81
2024/04/11 22:51:17;;;;;;;18.42;10.88;;;;;;;;;;5386396;26;19996;-81
2024/04/11 22:53:49;;;;;;;;;;;;;;;;;;5388275;26;20042;-81
2024/04/11 22:56:33;;;;;;;16.55;10.23;;;;;;;;;;5388205;26;19921;-81
2024/04/11 23:04:46;;;;;;;20.60;11.05;;;;;;;;;;5391532;26;20050;-81
2024/04/11 23:10:17;;;;;;;19.40;10.77;;;;;;;;;;5390871;26;19992;-81
2024/04/11 23:12:46;;;;;;;17.88;10.80;;;;;;;;;;5391335;26;20304;-81
2024/04/11 23:15:13;;;;;;;19.75;11.43;;;;;;;;;;5389677;26;20234;-81
2024/04/11 23:17:56;;;;;;;18.83;11.07;;;;;;;;;;5391347;26;19992;-81
2024/04/11 23:20:23;;;;;;;16.38;10.57;;;;;;;;;;5390586;26;20000;-81
2024/04/11 23:22:53;;;;;;;18.65;11.05;;;;;;;;;;5390604;26;20048;-81
2024/04/11 23:25:24;;;;;;;21.00;11.05;;;;;;;;;;5390851;26;19996;-81
2024/04/11 23:27:52;;;;;;;;;;;;;;;;;;5391923;26;20358;-81
2024/04/11 23:30:21;;;;;;;17.95;11.00;;;;;;;;;;5390460;26;20271;-81
2024/04/11 23:32:57;;;;;;;16.05;10.70;;;;;;;;;;5390466;26;20054;-81
2024/04/11 23:35:28;;;;;;;17.38;11.35;;;;;;;;;;5389598;26;19992;-81
2024/04/11 23:37:55;;;;;;;17.67;10.75;;;;;;;;;;5389711;26;19999;-82
2024/04/11 23:40:24;;;;;;;21.52;11.40;;;;;;;;;;5390490;26;19992;-80
2024/04/11 23:42:54;;;;;;;20.48;10.88;;;;;;;;;;5390898;26;20000;-80
2024/04/11 23:45:29;;;;;;;15.80;10.48;;;;;;;;;;5390411;26;20020;-80
2024/04/11 23:47:55;;;;;;;19.30;11.25;;;;;;;;;;5390583;26;19992;-80
2024/04/11 23:50:36;;;;;;;13.75;10.65;;;;;;;;;;5390835;26;20258;-80
2024/04/11 23:53:15;;;;;;;25.25;11.75;;;;;;;;;;5390244;26;19993;-80
2024/04/11 23:55:57;;;;;;;19.52;11.60;;;;;;;;;;5389492;26;19999;-80
2024/04/11 23:58:32;;;;;;;17.27;11.98;;;;;;;;;;5389271;26;20004;-80
